Time;durP1;ratioP1;P1;durP2;ratioP2;P2;SDS_P1;SDS_P2;PMS_P1;PMS_P2;Temp;Humidity;BMP_temperature;BMP_pressure;BME280_temperature;BME280_humidity;BME280_pressure;Samples;Min_cycle;Max_cycle;Signal;HPM_P1;HPM_P2
2022/06/14 00:01:55;;;;;;;1999.90;999.90;;;10.90;99.90;;;;;;5012777;28;20202;-59
2022/06/14 00:04:23;;;;;;;1999.90;999.90;;;10.90;99.90;;;;;;5012683;28;20202;-59
2022/06/14 00:06:50;;;;;;;1999.90;999.90;;;11.00;99.90;;;;;;5012779;28;20548;-60
2022/06/14 00:09:17;;;;;;;1999.90;999.90;;;11.00;99.90;;;;;;5012689;28;20260;-60
2022/06/14 00:11:46;;;;;;;1999.90;999.90;;;10.80;99.90;;;;;;5012693;28;20205;-60
2022/06/14 00:14:13;;;;;;;1999.90;999.90;;;10.50;99.90;;;;;;5012297;28;20569;-59
2022/06/14 00:16:40;;;;;;;1999.90;999.90;;;10.40;99.90;;;;;;5012509;28;20222;-60
2022/06/14 00:19:07;;;;;;;1999.90;999.90;;;10.40;99.90;;;;;;5012348;28;20226;-60
2022/06/14 00:21:37;;;;;;;1999.90;999.90;;;10.50;99.90;;;;;;5012374;28;20201;-60
2022/06/14 00:24:05;;;;;;;1999.90;999.90;;;10.60;99.90;;;;;;5012652;28;20204;-60
2022/06/14 00:26:32;;;;;;;1999.90;999.90;;;10.60;99.90;;;;;;5012437;28;20202;-60
2022/06/14 00:28:59;;;;;;;1999.90;999.90;;;10.70;99.90;;;;;;5012536;28;20204;-60
2022/06/14 00:31:28;;;;;;;1999.90;999.90;;;10.80;99.90;;;;;;5012399;28;20240;-60
2022/06/14 00:33:55;;;;;;;1999.90;999.90;;;10.80;99.90;;;;;;5013545;28;20201;-60
2022/06/14 00:36:28;;;;;;;1999.90;999.90;;;10.90;99.90;;;;;;5013645;28;20622;-60
2022/06/14 00:38:58;;;;;;;1999.90;999.90;;;10.80;99.90;;;;;;5012585;28;20218;-60
2022/06/14 00:41:36;;;;;;;1999.90;999.90;;;10.80;99.90;;;;;;5012407;28;20193;-60
2022/06/14 00:44:05;;;;;;;1999.90;999.90;;;10.80;99.90;;;;;;5012096;28;20666;-60
2022/06/14 00:46:38;;;;;;;1999.90;999.90;;;10.70;99.90;;;;;;5012244;28;20255;-60
2022/06/14 00:49:07;;;;;;;1999.90;999.90;;;10.70;99.90;;;;;;5012211;28;20200;-60
2022/06/14 00:51:53;;;;;;;1999.90;999.90;;;10.70;99.90;;;;;;5012262;28;20230;-60
2022/06/14 00:54:25;;;;;;;1999.90;999.90;;;10.70;99.90;;;;;;5012044;28;20181;-61
2022/06/14 00:56:56;;;;;;;1999.90;999.90;;;10.60;99.90;;;;;;5012290;28;20239;-60
2022/06/14 00:59:27;;;;;;;1999.90;999.90;;;10.70;99.90;;;;;;5011954;28;20228;-59
2022/06/14 01:02:02;;;;;;;1999.90;999.90;;;10.50;99.90;;;;;;5011878;28;20546;-60
2022/06/14 01:04:31;;;;;;;1999.90;999.90;;;10.40;99.90;;;;;;5012052;28;20201;-59
2022/06/14 01:07:03;;;;;;;1999.90;999.90;;;10.40;99.90;;;;;;5011867;28;21035;-60
2022/06/14 01:09:43;;;;;;;1999.90;999.90;;;10.30;99.90;;;;;;5011734;28;20212;-60
2022/06/14 01:12:14;;;;;;;1999.90;999.90;;;10.40;99.90;;;;;;5011834;28;20179;-60
2022/06/14 01:14:47;;;;;;;1999.90;999.90;;;10.40;99.90;;;;;;5011956;28;20721;-60
2022/06/14 01:17:15;;;;;;;1999.90;999.90;;;10.30;99.90;;;;;;5012030;28;20205;-60
2022/06/14 01:19:44;;;;;;;1999.90;999.90;;;10.00;99.90;;;;;;5011851;28;20212;-59
2022/06/14 01:22:33;;;;;;;1999.90;999.90;;;9.80;99.90;;;;;;5011816;28;20201;-59
2022/06/14 01:25:02;;;;;;;1999.90;999.90;;;9.60;99.90;;;;;;5011942;28;20652;-60
2022/06/14 01:27:31;;;;;;;1999.90;999.90;;;9.60;99.90;;;;;;5012115;28;20582;-59
2022/06/14 01:30:07;;;;;;;1999.90;999.90;;;9.60;99.90;;;;;;5012133;28;20205;-59
2022/06/14 01:32:41;;;;;;;1999.90;999.90;;;9.50;99.90;;;;;;5015539;28;20258;-59
2022/06/14 01:35:13;;;;;;;1999.90;999.90;;;9.50;99.90;;;;;;5015619;28;20185;-59
2022/06/14 01:37:42;;;;;;;1999.90;999.90;;;9.40;99.90;;;;;;5015386;28;20236;-60
2022/06/14 01:40:10;;;;;;;1999.90;999.90;;;9.40;99.90;;;;;;5015343;28;20274;-60
2022/06/14 01:43:01;;;;;;;1999.90;999.90;;;9.40;99.90;;;;;;5015205;28;20661;-60
2022/06/14 01:45:35;;;;;;;1999.90;999.90;;;9.50;99.90;;;;;;4981883;28;20205;-60
2022/06/14 01:48:10;;;;;;;1999.90;999.90;;;9.60;99.90;;;;;;5016009;28;20173;-59
2022/06/14 01:53:47;;;;;;;1999.90;999.90;;;9.60;99.90;;;;;;5015244;28;20187;-60
2022/06/14 01:56:19;;;;;;;1999.90;999.90;;;9.40;99.90;;;;;;5015016;28;20191;-60
2022/06/14 01:58:54;;;;;;;1999.90;999.90;;;9.30;99.90;;;;;;5015170;28;20182;-60
2022/06/14 02:01:27;;;;;;;1999.90;999.90;;;9.20;99.90;;;;;;5015053;28;20188;-59
2022/06/14 02:06:54;;;;;;;1999.90;999.90;;;9.20;99.90;;;;;;5014952;28;20588;-60
2022/06/14 02:09:25;;;;;;;1999.90;999.90;;;9.20;99.90;;;;;;5014884;28;20191;-59
2022/06/14 02:11:53;;;;;;;1999.90;999.90;;;9.30;99.90;;;;;;5014842;28;20188;-60
2022/06/14 02:14:24;;;;;;;1999.90;999.90;;;9.30;99.90;;;;;;5014274;28;20246;-59
2022/06/14 02:16:59;;;;;;;1999.90;999.90;;;9.20;99.90;;;;;;5014655;28;20216;-59
2022/06/14 02:19:32;;;;;;;1999.90;999.90;;;9.00;99.90;;;;;;5014551;28;20207;-59
2022/06/14 02:22:05;;;;;;;1999.90;999.90;;;9.00;99.90;;;;;;5014614;28;20187;-59
2022/06/14 02:24:40;;;;;;;1999.90;999.90;;;9.00;99.90;;;;;;5014476;28;20630;-59
2022/06/14 02:27:13;;;;;;;1999.90;999.90;;;9.00;99.90;;;;;;5014626;28;20195;-59
2022/06/14 02:29:44;;;;;;;1999.90;999.90;;;9.00;99.90;;;;;;5014470;28;20183;-59
2022/06/14 02:32:18;;;;;;;1999.90;999.90;;;9.00;99.90;;;;;;5014284;28;20195;-59
2022/06/14 02:34:50;;;;;;;1999.90;999.90;;;8.70;99.90;;;;;;5014619;28;20550;-59
2022/06/14 02:37:21;;;;;;;1999.90;999.90;;;8.60;99.90;;;;;;5014327;28;20263;-59
2022/06/14 02:40:02;;;;;;;1999.90;999.90;;;8.70;99.90;;;;;;5014037;28;20173;-60
2022/06/14 02:42:34;;;;;;;1999.90;999.90;;;8.80;99.90;;;;;;5013069;28;20272;-59
2022/06/14 02:45:07;;;;;;;1999.90;999.90;;;8.90;99.90;;;;;;5013938;28;20656;-59
2022/06/14 02:47:40;;;;;;;1999.90;999.90;;;8.90;99.90;;;;;;5014021;28;20200;-59
2022/06/14 02:50:12;;;;;;;1999.90;999.90;;;9.00;99.90;;;;;;5014104;28;20192;-60
2022/06/14 02:52:49;;;;;;;1999.90;999.90;;;9.00;99.90;;;;;;5013926;28;20192;-60
2022/06/14 02:55:25;;;;;;;1999.90;999.90;;;9.10;99.90;;;;;;5013952;28;20199;-60
2022/06/14 02:57:57;;;;;;;1999.90;999.90;;;9.10;99.90;;;;;;5014892;28;20211;-59
2022/06/14 03:00:28;;;;;;;1999.90;999.90;;;9.10;99.90;;;;;;5013986;28;20616;-60
2022/06/14 03:02:59;;;;;;;1999.90;999.90;;;9.10;99.90;;;;;;5013810;28;20262;-60
2022/06/14 03:05:32;;;;;;;1999.90;999.90;;;9.10;99.90;;;;;;5013884;28;20208;-59
2022/06/14 03:08:04;;;;;;;1999.90;999.90;;;8.90;99.90;;;;;;5013403;28;20688;-59
2022/06/14 03:10:39;;;;;;;1999.90;999.90;;;8.80;99.90;;;;;;5013682;28;20181;-60
2022/06/14 03:13:14;;;;;;;1999.90;999.90;;;8.90;99.90;;;;;;5013199;28;20767;-59
2022/06/14 03:15:48;;;;;;;1999.90;999.90;;;8.90;99.90;;;;;;5013680;28;20196;-60
2022/06/14 03:18:22;;;;;;;1999.90;999.90;;;8.90;99.90;;;;;;5013413;28;20216;-59
2022/06/14 03:20:57;;;;;;;1999.90;999.90;;;9.00;99.90;;;;;;5013504;28;20207;-59
2022/06/14 03:23:34;;;;;;;1999.90;999.90;;;9.00;99.90;;;;;;5013543;28;20645;-59
2022/06/14 03:26:09;;;;;;;1999.90;999.90;;;8.70;99.90;;;;;;5013413;28;20196;-59
2022/06/14 03:28:43;;;;;;;1999.90;999.90;;;8.50;99.90;;;;;;5013448;28;20180;-59
2022/06/14 03:31:16;;;;;;;1999.90;999.90;;;8.60;99.90;;;;;;5013345;28;20535;-59
2022/06/14 03:33:47;;;;;;;1999.90;999.90;;;8.70;99.90;;;;;;5012950;28;20647;-59
2022/06/14 03:36:15;;;;;;;1999.90;999.90;;;8.80;99.90;;;;;;5013263;28;20188;-59
2022/06/14 03:38:47;;;;;;;1999.90;999.90;;;8.90;99.90;;;;;;5013081;28;20232;-60
2022/06/14 03:41:19;;;;;;;1999.90;999.90;;;9.00;99.90;;;;;;5012958;28;20646;-59
2022/06/14 03:43:46;;;;;;;1999.90;999.90;;;9.00;99.90;;;;;;5012868;28;20188;-59
2022/06/14 03:46:24;;;;;;;1999.90;999.90;;;9.10;99.90;;;;;;5013034;28;20223;-59
2022/06/14 03:48:57;;;;;;;1999.90;999.90;;;9.10;99.90;;;;;;5012979;28;20184;-59
2022/06/14 03:51:30;;;;;;;1999.90;999.90;;;9.20;99.90;;;;;;5013038;28;20190;-60
2022/06/14 03:54:13;;;;;;;1999.90;999.90;;;9.30;99.90;;;;;;5012266;28;20643;-60
2022/06/14 03:56:55;;;;;;;1999.90;999.90;;;9.30;99.90;;;;;;5012521;28;20727;-60
2022/06/14 03:59:44;;;;;;;1999.90;999.90;;;9.20;99.90;;;;;;5012839;28;20196;-60
2022/06/14 04:02:18;;;;;;;1999.90;999.90;;;9.20;99.90;;;;;;5012940;28;20593;-59
2022/06/14 04:04:54;;;;;;;1999.90;999.90;;;9.20;99.90;;;;;;5012466;28;20189;-60
2022/06/14 04:07:34;;;;;;;1999.90;999.90;;;9.30;99.90;;;;;;5012774;28;20176;-60
2022/06/14 04:10:16;;;;;;;1999.90;999.90;;;9.30;99.90;;;;;;5012795;28;20221;-60
2022/06/14 04:12:53;;;;;;;1999.90;999.90;;;9.20;99.90;;;;;;5012333;28;20693;-59
2022/06/14 04:15:31;;;;;;;1999.90;999.90;;;9.30;99.90;;;;;;5012751;28;20377;-59
2022/06/14 04:20:57;;;;;;;1999.90;999.90;;;9.50;99.90;;;;;;5011511;28;20197;-59
2022/06/14 04:23:31;;;;;;;1999.90;999.90;;;9.60;99.90;;;;;;5012833;28;20188;-60
2022/06/14 04:26:05;;;;;;;1999.90;999.90;;;9.80;99.90;;;;;;5012581;28;20193;-60
2022/06/14 04:28:40;;;;;;;1999.90;999.90;;;10.00;99.90;;;;;;5012250;28;20185;-60
2022/06/14 04:31:15;;;;;;;1999.90;999.90;;;10.10;99.90;;;;;;5012618;28;20200;-60
2022/06/14 04:33:47;;;;;;;1999.90;999.90;;;10.20;99.90;;;;;;5012506;28;20269;-60
2022/06/14 04:36:19;;;;;;;1999.90;999.90;;;10.40;99.90;;;;;;5012412;28;20191;-60
2022/06/14 04:38:49;;;;;;;1999.90;999.90;;;10.50;99.90;;;;;;5012252;28;20707;-60
2022/06/14 04:41:21;;;;;;;1999.90;999.90;;;10.60;99.90;;;;;;5012389;28;20659;-60
2022/06/14 04:43:53;;;;;;;1999.90;999.90;;;10.70;99.90;;;;;;5012505;28;20182;-60
2022/06/14 04:46:23;;;;;;;1999.90;999.90;;;10.70;99.90;;;;;;5012397;28;20201;-60
2022/06/14 04:48:54;;;;;;;1999.90;999.90;;;10.80;99.90;;;;;;5012181;28;20587;-60
2022/06/14 04:51:27;;;;;;;1999.90;999.90;;;10.90;99.90;;;;;;5012172;28;20202;-60
2022/06/14 04:54:04;;;;;;;1999.90;999.90;;;11.00;99.90;;;;;;5012004;28;20535;-60
2022/06/14 04:56:35;;;;;;;1999.90;999.90;;;11.20;99.90;;;;;;5012296;28;20189;-60
2022/06/14 04:59:07;;;;;;;1999.90;999.90;;;11.30;99.90;;;;;;5012211;28;20198;-60
2022/06/14 05:01:42;;;;;;;1999.90;999.90;;;11.50;99.90;;;;;;5012280;28;20192;-60
2022/06/14 05:04:16;;;;;;;1999.90;999.90;;;11.60;99.90;;;;;;5011990;28;20182;-59
2022/06/14 05:06:46;;;;;;;1999.90;999.90;;;11.80;99.90;;;;;;5014747;28;20198;-59
2022/06/14 05:09:17;;;;;;;1999.90;999.90;;;12.10;99.90;;;;;;5016057;28;20187;-60
2022/06/14 05:11:51;;;;;;;1999.90;999.90;;;12.50;99.90;;;;;;5016022;28;20185;-60
2022/06/14 07:14:14;;;;;;;1999.90;999.90;;;22.30;99.90;;;;;;4915607;28;20235;-62
2022/06/14 07:16:48;;;;;;;1999.90;999.90;;;22.60;99.90;;;;;;5013095;28;20281;-62
2022/06/14 07:19:22;;;;;;;1999.90;999.90;;;22.30;1.00;;;;;;5012630;28;20259;-62
2022/06/14 07:21:55;;;;;;;1999.90;999.90;;;22.40;1.00;;;;;;5013097;28;20189;-62
2022/06/14 07:24:27;;;;;;;1999.90;999.90;;;22.50;1.00;;;;;;5013402;28;20181;-62
2022/06/14 07:26:59;;;;;;;1999.90;999.90;;;22.60;1.00;;;;;;5013071;28;20193;-64
2022/06/14 07:29:32;;;;;;;1999.90;999.90;;;22.80;99.90;;;;;;5012070;28;20627;-64
2022/06/14 07:32:05;;;;;;;1999.90;999.90;;;22.50;99.90;;;;;;5013100;28;20193;-63
2022/06/14 07:34:33;;;;;;;1999.90;999.90;;;22.80;1.00;;;;;;5013054;28;20181;-64
2022/06/14 07:37:05;;;;;;;1999.90;999.90;;;22.50;99.90;;;;;;5013195;28;20212;-64
2022/06/14 07:39:40;;;;;;;1999.90;999.90;;;23.00;99.90;;;;;;5012765;28;20591;-63
2022/06/14 07:42:13;;;;;;;1999.90;999.90;;;22.90;99.90;;;;;;5013077;28;20189;-63
2022/06/14 07:44:51;;;;;;;1999.90;999.90;;;23.20;99.90;;;;;;5012806;28;20181;-63
2022/06/14 07:47:27;;;;;;;1999.90;999.90;;;23.10;99.90;;;;;;5012707;28;20181;-62
2022/06/14 07:49:58;;;;;;;1999.90;999.90;;;23.20;99.90;;;;;;5012444;28;20193;-63
2022/06/14 07:52:31;;;;;;;1999.90;999.90;;;22.80;91.60;;;;;;5012775;28;20192;-64
2022/06/14 07:55:05;;;;;;;1999.90;999.90;;;22.60;12.80;;;;;;5012782;28;20181;-64
2022/06/14 07:57:37;;;;;;;1999.90;999.90;;;22.30;99.90;;;;;;5012650;28;20210;-63
2022/06/14 08:03:02;;;;;;;1999.90;999.90;;;22.70;22.30;;;;;;5012602;28;20221;-62
2022/06/14 08:05:36;;;;;;;1999.90;999.90;;;23.40;99.90;;;;;;5012460;28;20686;-62
2022/06/14 08:08:05;;;;;;;1999.90;999.90;;;23.60;1.00;;;;;;5012508;28;20181;-63
2022/06/14 08:10:37;;;;;;;1999.90;999.90;;;23.60;1.00;;;;;;5012340;28;20204;-63
2022/06/14 08:13:08;;;;;;;1999.90;999.90;;;23.90;1.00;;;;;;5012448;28;20211;-63
2022/06/14 08:15:39;;;;;;;1999.90;999.90;;;24.10;1.00;;;;;;5012136;28;20579;-63
2022/06/14 08:18:13;;;;;;;1999.90;999.90;;;24.40;1.00;;;;;;5012235;28;20313;-63
2022/06/14 08:20:46;;;;;;;1999.90;999.90;;;22.80;1.00;;;;;;5011973;28;20212;-63
2022/06/14 08:23:26;;;;;;;1999.90;999.90;;;19.80;1.00;;;;;;5011757;28;20193;-63
2022/06/14 08:25:57;;;;;;;1999.90;999.90;;;19.20;1.00;;;;;;5012204;28;20173;-63
2022/06/14 08:28:30;;;;;;;1999.90;999.90;;;19.30;1.00;;;;;;5011946;28;20189;-63
2022/06/14 08:31:05;;;;;;;1999.90;999.90;;;20.20;1.00;;;;;;5011951;28;20204;-63
2022/06/14 08:33:39;;;;;;;1999.90;999.90;;;21.40;99.90;;;;;;5012085;28;20184;-63
2022/06/14 08:36:10;;;;;;;1999.90;999.90;;;22.40;1.00;;;;;;5012174;28;20185;-64
2022/06/14 08:38:41;;;;;;;1999.90;999.90;;;22.80;1.00;;;;;;5011767;28;20207;-64
2022/06/14 08:41:22;;;;;;;1999.90;999.90;;;22.20;99.90;;;;;;5015592;28;20624;-64
2022/06/14 08:43:53;;;;;;;1999.90;999.90;;;23.40;1.00;;;;;;5016185;28;20289;-64
2022/06/14 08:46:30;;;;;;;1999.90;999.90;;;23.90;99.90;;;;;;5016235;28;20203;-64
2022/06/14 08:49:15;;;;;;;1999.90;999.90;;;23.50;1.00;;;;;;5015921;28;20176;-63
2022/06/14 08:52:01;;;;;;;1999.90;999.90;;;23.00;1.00;;;;;;5016093;28;20187;-61
2022/06/14 08:54:56;;;;;;;1999.90;999.90;;;23.30;1.00;;;;;;5016005;28;20195;-62
2022/06/14 08:57:48;;;;;;;1999.90;999.90;;;23.70;1.00;;;;;;5015961;28;20192;-62
2022/06/14 09:00:33;;;;;;;1999.90;999.90;;;24.50;99.90;;;;;;5015991;28;20544;-62
2022/06/14 09:03:35;;;;;;;1999.90;999.90;;;25.00;99.90;;;;;;5015871;28;20193;-62
2022/06/14 09:06:36;;;;;;;1999.90;999.90;;;24.90;99.90;;;;;;5016119;28;20189;-62
2022/06/14 09:09:31;;;;;;;1999.90;999.90;;;25.00;99.90;;;;;;5015775;28;20196;-62
2022/06/14 09:12:42;;;;;;;1999.90;999.90;;;25.20;99.90;;;;;;5015635;28;20216;-62
2022/06/14 09:15:31;;;;;;;1999.90;999.90;;;25.00;99.90;;;;;;5015377;28;20232;-62
2022/06/14 09:18:12;;;;;;;1999.90;999.90;;;24.60;99.90;;;;;;5015412;28;20545;-62
2022/06/14 09:20:44;;;;;;;1999.90;999.90;;;24.80;99.90;;;;;;5015800;28;20235;-62
2022/06/14 09:23:20;;;;;;;1999.90;999.90;;;24.80;99.90;;;;;;5015605;28;20200;-62
2022/06/14 09:26:28;;;;;;;1999.90;999.90;;;25.40;99.90;;;;;;5015499;28;20197;-62
2022/06/14 09:29:40;;;;;;;1999.90;999.90;;;25.50;99.90;;;;;;4935411;29;20562;-62
2022/06/14 09:35:45;;;;;;;1999.90;999.90;;;24.20;99.90;;;;;;4934404;29;20690;-62
2022/06/14 09:38:42;;;;;;;1999.90;999.90;;;24.20;99.90;;;;;;4935260;29;20227;-62
2022/06/14 09:41:19;;;;;;;1999.90;999.90;;;25.00;99.90;;;;;;4935356;29;20195;-62
2022/06/14 09:44:14;;;;;;;1999.90;999.90;;;24.80;99.90;;;;;;4935078;29;20231;-62
2022/06/14 09:47:02;;;;;;;1999.90;999.90;;;25.30;99.90;;;;;;4934990;29;20195;-62
2022/06/14 09:50:08;;;;;;;1999.90;999.90;;;24.50;99.90;;;;;;4935117;29;20195;-62
2022/06/14 09:53:19;;;;;;;1999.90;999.90;;;24.70;99.90;;;;;;4934194;29;20212;-62
2022/06/14 09:56:13;;;;;;;1999.90;999.90;;;24.40;99.90;;;;;;4934934;29;20202;-63
2022/06/14 09:59:08;;;;;;;1999.90;999.90;;;23.60;99.90;;;;;;4934754;29;20219;-62
2022/06/14 10:01:43;;;;;;;1999.90;999.90;;;24.40;99.90;;;;;;4933349;29;20555;-62
2022/06/14 10:04:38;;;;;;;1999.90;999.90;;;24.70;99.90;;;;;;4956799;28;20209;-62
2022/06/14 10:07:31;;;;;;;1999.90;999.90;;;23.80;99.90;;;;;;5011406;28;20262;-62
2022/06/14 10:10:22;;;;;;;1999.90;999.90;;;24.30;99.90;;;;;;5014500;28;20283;-62
2022/06/14 10:13:16;;;;;;;1999.90;999.90;;;24.80;99.90;;;;;;5011348;28;20204;-62
2022/06/14 10:15:55;;;;;;;1999.90;999.90;;;25.10;99.90;;;;;;5014410;28;20240;-62
2022/06/14 10:18:52;;;;;;;1999.90;999.90;;;25.30;99.90;;;;;;5014371;28;20196;-62
2022/06/14 10:21:23;;;;;;;1999.90;999.90;;;25.50;99.90;;;;;;5000914;28;20227;-62
2022/06/14 10:24:06;;;;;;;1999.90;999.90;;;25.40;99.90;;;;;;5014631;28;20287;-62
2022/06/14 10:29:48;;;;;;;1999.90;999.90;;;24.70;99.90;;;;;;5013941;28;20184;-62
2022/06/14 10:32:38;;;;;;;1999.90;999.90;;;25.10;99.90;;;;;;5014617;28;20203;-62
2022/06/14 10:35:14;;;;;;;1999.90;999.90;;;25.30;99.90;;;;;;5014242;28;20191;-62
2022/06/14 10:38:09;;;;;;;1999.90;999.90;;;24.30;99.90;;;;;;5014347;28;20220;-62
2022/06/14 10:40:52;;;;;;;1999.90;999.90;;;23.90;99.90;;;;;;5013958;28;20188;-62
2022/06/14 10:43:29;;;;;;;1999.90;999.90;;;24.30;99.90;;;;;;5014133;28;20189;-62
2022/06/14 10:45:58;;;;;;;1999.90;999.90;;;24.70;99.90;;;;;;5013991;28;20261;-62
2022/06/14 10:48:52;;;;;;;1999.90;999.90;;;25.30;99.90;;;;;;5013880;28;20275;-62
2022/06/14 10:51:32;;;;;;;1999.90;999.90;;;25.60;99.90;;;;;;5013782;28;20181;-62
2022/06/14 10:54:09;;;;;;;1999.90;999.90;;;25.20;99.60;;;;;;5013867;28;20181;-62
2022/06/14 10:56:57;;;;;;;1999.90;999.90;;;25.20;45.60;;;;;;5013948;28;20730;-62
2022/06/14 10:59:51;;;;;;;1999.90;999.90;;;25.80;12.60;;;;;;5013732;28;20239;-61
2022/06/14 11:02:30;;;;;;;1999.90;999.90;;;26.00;1.00;;;;;;5013397;28;20185;-62
2022/06/14 11:05:04;;;;;;;1999.90;999.90;;;24.90;1.00;;;;;;5013051;28;20181;-61
2022/06/14 11:08:03;;;;;;;1999.90;999.90;;;24.70;1.00;;;;;;5013654;28;20193;-62
2022/06/14 11:10:54;;;;;;;1999.90;999.90;;;25.50;1.00;;;;;;5013612;28;20185;-62
2022/06/14 11:13:29;;;;;;;1999.90;999.90;;;24.80;1.00;;;;;;5013456;28;20550;-62
2022/06/14 11:16:05;;;;;;;1999.90;999.90;;;23.80;1.00;;;;;;5012892;28;20251;-62
2022/06/14 11:18:57;;;;;;;1999.90;999.90;;;25.20;1.00;;;;;;5012945;28;20192;-61
2022/06/14 11:21:39;;;;;;;1999.90;999.90;;;26.00;1.00;;;;;;5013103;28;20186;-61
2022/06/14 11:24:12;;;;;;;1999.90;999.90;;;25.90;1.00;;;;;;5013438;28;20407;-61
2022/06/14 11:26:48;;;;;;;1999.90;999.90;;;26.40;1.00;;;;;;5013285;28;20181;-62
2022/06/14 11:29:25;;;;;;;1999.90;999.90;;;26.20;1.00;;;;;;5013158;28;20184;-61
2022/06/14 11:32:02;;;;;;;1999.90;999.90;;;26.40;1.00;;;;;;5013219;28;20272;-62
2022/06/14 11:34:42;;;;;;;1999.90;999.90;;;26.20;1.00;;;;;;5012707;28;20184;-62
2022/06/14 11:37:30;;;;;;;1999.90;999.90;;;26.20;1.00;;;;;;5012994;28;20177;-62
2022/06/14 11:40:02;;;;;;;1999.90;999.90;;;26.20;1.00;;;;;;4996204;28;20237;-62
2022/06/14 11:42:32;;;;;;;1999.90;999.90;;;26.40;1.00;;;;;;5012991;28;20185;-63
2022/06/14 11:45:12;;;;;;;1999.90;999.90;;;26.80;1.00;;;;;;5013118;28;20205;-63
2022/06/14 11:47:49;;;;;;;1999.90;999.90;;;27.30;1.00;;;;;;5012729;28;20193;-63
2022/06/14 11:50:30;;;;;;;1999.90;999.90;;;26.90;1.00;;;;;;5012576;28;20181;-62
2022/06/14 11:53:23;;;;;;;1999.90;999.90;;;26.40;1.00;;;;;;5012668;28;20193;-63
2022/06/14 11:55:55;;;;;;;1999.90;999.90;;;25.60;1.00;;;;;;5012708;28;20181;-63
2022/06/14 11:58:34;;;;;;;1999.90;999.90;;;25.30;1.00;;;;;;5012826;28;20208;-62
2022/06/14 12:01:14;;;;;;;1999.90;999.90;;;25.90;1.00;;;;;;5012540;28;20204;-63
2022/06/14 12:04:01;;;;;;;1999.90;999.90;;;26.40;1.00;;;;;;5012584;28;20193;-62
2022/06/14 12:06:38;;;;;;;1999.90;999.90;;;26.70;1.00;;;;;;5012518;28;20177;-62
2022/06/14 12:09:24;;;;;;;1999.90;999.90;;;26.60;1.00;;;;;;5012575;28;20244;-63
2022/06/14 12:11:55;;;;;;;1999.90;999.90;;;27.20;1.00;;;;;;5012587;28;20752;-63
2022/06/14 12:14:54;;;;;;;1999.90;999.90;;;27.10;1.00;;;;;;5011868;28;20248;-62
2022/06/14 12:17:26;;;;;;;1999.90;999.90;;;26.10;1.00;;;;;;5012176;28;20205;-62
2022/06/14 12:20:02;;;;;;;1999.90;999.90;;;26.50;1.00;;;;;;5012396;28;20228;-63
2022/06/14 12:22:36;;;;;;;1999.90;999.90;;;27.00;1.00;;;;;;5012247;28;20176;-62
2022/06/14 12:28:02;;;;;;;1999.90;999.90;;;26.80;1.00;;;;;;5012178;28;20276;-62
2022/06/14 12:30:33;;;;;;;1999.90;999.90;;;26.70;1.00;;;;;;5012169;28;20181;-63
2022/06/14 12:33:06;;;;;;;1999.90;999.90;;;27.10;1.00;;;;;;5012302;28;20268;-62
2022/06/14 12:35:41;;;;;;;1999.90;999.90;;;27.20;1.00;;;;;;5012092;28;20571;-62
2022/06/14 12:38:17;;;;;;;1999.90;999.90;;;26.60;1.00;;;;;;5011844;28;20630;-63
2022/06/14 12:40:48;;;;;;;1999.90;999.90;;;27.00;1.00;;;;;;5011914;28;20220;-63
2022/06/14 12:43:22;;;;;;;1999.90;999.90;;;26.90;1.00;;;;;;5011924;28;20192;-62
2022/06/14 12:45:54;;;;;;;1999.90;999.90;;;27.10;1.00;;;;;;5011974;28;20216;-63
2022/06/14 12:48:35;;;;;;;1999.90;999.90;;;27.40;1.00;;;;;;5011666;28;20243;-63
2022/06/14 12:51:10;;;;;;;1999.90;999.90;;;26.90;1.00;;;;;;5011569;28;20189;-62
2022/06/14 12:53:44;;;;;;;1999.90;999.90;;;26.40;1.00;;;;;;5011932;28;20203;-63
2022/06/14 12:56:16;;;;;;;1999.90;999.90;;;26.90;1.00;;;;;;5011758;28;20189;-63
2022/06/14 12:58:52;;;;;;;1999.90;999.90;;;27.20;1.00;;;;;;5012009;28;20192;-63
2022/06/14 13:01:29;;;;;;;1999.90;999.90;;;27.20;1.00;;;;;;5012043;28;20191;-63
2022/06/14 13:04:00;;;;;;;1999.90;999.90;;;27.10;1.00;;;;;;5011941;28;20181;-62
2022/06/14 13:06:54;;;;;;;1999.90;999.90;;;26.70;1.00;;;;;;5011925;28;20558;-63
2022/06/14 13:09:32;;;;;;;1999.90;999.90;;;27.00;1.00;;;;;;5011530;28;20231;-63
2022/06/14 13:12:20;;;;;;;1999.90;999.90;;;27.20;1.00;;;;;;5011890;28;20199;-62
2022/06/14 13:14:56;;;;;;;1999.90;999.90;;;26.90;1.00;;;;;;5011505;28;20240;-63
2022/06/14 13:17:53;;;;;;;1999.90;999.90;;;26.70;1.00;;;;;;5011649;28;20224;-62
2022/06/14 13:20:29;;;;;;;1999.90;999.90;;;26.70;1.00;;;;;;5011756;28;20216;-63
2022/06/14 13:23:08;;;;;;;1999.90;999.90;;;26.90;1.00;;;;;;5011836;28;20700;-63
2022/06/14 13:26:15;;;;;;;1999.90;999.90;;;27.10;1.00;;;;;;5011337;28;20215;-64
2022/06/14 13:29:11;;;;;;;1999.90;999.90;;;26.90;1.00;;;;;;4935466;29;20238;-63
2022/06/14 13:31:56;;;;;;;1999.90;999.90;;;26.90;1.00;;;;;;4934150;29;20254;-63
2022/06/14 13:34:32;;;;;;;1999.90;999.90;;;26.60;1.00;;;;;;4935429;29;20228;-63
2022/06/14 13:37:11;;;;;;;1999.90;999.90;;;26.50;1.00;;;;;;4935187;29;20270;-63
2022/06/14 13:39:49;;;;;;;1999.90;999.90;;;26.30;1.00;;;;;;4935161;29;20234;-63
2022/06/14 13:42:28;;;;;;;1999.90;999.90;;;26.90;1.00;;;;;;4935200;29;20730;-60
2022/06/14 13:45:01;;;;;;;1999.90;999.90;;;26.80;1.00;;;;;;4935111;29;20192;-60
2022/06/14 13:47:34;;;;;;;1999.90;999.90;;;26.40;1.00;;;;;;4935025;29;20195;-62
2022/06/14 13:50:06;;;;;;;1999.90;999.90;;;26.60;1.00;;;;;;4934844;29;20258;-62
2022/06/14 13:52:38;;;;;;;1999.90;999.90;;;26.70;1.00;;;;;;4934833;29;20624;-62
2022/06/14 13:55:18;;;;;;;1999.90;999.90;;;26.40;1.00;;;;;;4934746;29;20195;-62
2022/06/14 13:57:50;;;;;;;1999.90;999.90;;;26.40;1.00;;;;;;4934847;29;20614;-61
2022/06/14 14:00:21;;;;;;;1999.90;999.90;;;25.80;1.00;;;;;;4934915;29;20246;-61
2022/06/14 14:02:55;;;;;;;1999.90;999.90;;;25.60;1.00;;;;;;4977563;28;20217;-61
2022/06/14 14:05:29;;;;;;;1999.90;999.90;;;25.50;1.00;;;;;;5014544;28;20200;-60
2022/06/14 14:08:08;;;;;;;1999.90;999.90;;;25.80;1.00;;;;;;5014561;28;20236;-61
2022/06/14 14:10:50;;;;;;;1999.90;999.90;;;25.30;1.00;;;;;;5014184;28;20580;-61
2022/06/14 14:13:25;;;;;;;1999.90;999.90;;;25.10;1.00;;;;;;5014505;28;20181;-60
2022/06/14 14:15:57;;;;;;;1999.90;999.90;;;25.30;1.00;;;;;;5013905;28;20718;-60
2022/06/14 14:18:42;;;;;;;1999.90;999.90;;;25.10;1.00;;;;;;5014406;28;20182;-60
2022/06/14 14:21:17;;;;;;;1999.90;999.90;;;24.80;1.00;;;;;;5014227;28;20205;-60
2022/06/14 14:24:10;;;;;;;1999.90;999.90;;;24.90;1.00;;;;;;5014462;28;20279;-60
2022/06/14 14:26:45;;;;;;;1999.90;999.90;;;24.80;1.00;;;;;;5014323;28;20189;-60
2022/06/14 14:29:18;;;;;;;1999.90;999.90;;;24.50;1.00;;;;;;5014362;28;20184;-60
2022/06/14 14:31:52;;;;;;;1999.90;999.90;;;24.30;1.00;;;;;;5014102;28;20918;-60
2022/06/14 14:34:26;;;;;;;1999.90;999.90;;;24.30;1.00;;;;;;5014226;28;20182;-60
2022/06/14 14:37:02;;;;;;;1999.90;999.90;;;24.40;1.00;;;;;;5014299;28;20590;-60
2022/06/14 14:39:47;;;;;;;1999.90;999.90;;;24.70;1.00;;;;;;5014020;28;20185;-60
2022/06/14 14:42:39;;;;;;;1999.90;999.90;;;24.50;1.00;;;;;;5014290;28;20197;-60
2022/06/14 14:45:13;;;;;;;1999.90;999.90;;;24.50;1.00;;;;;;5013974;28;20510;-60
2022/06/14 14:47:46;;;;;;;1999.90;999.90;;;24.20;1.00;;;;;;5013752;28;20280;-60
2022/06/14 14:50:24;;;;;;;1999.90;999.90;;;24.10;1.00;;;;;;5013792;28;20255;-60
2022/06/14 14:53:00;;;;;;;1999.90;999.90;;;24.20;1.00;;;;;;5013761;28;20189;-60
2022/06/14 14:55:34;;;;;;;1999.90;999.90;;;24.00;1.00;;;;;;5013493;28;20609;-60
2022/06/14 14:58:11;;;;;;;1999.90;999.90;;;24.20;1.00;;;;;;5013759;28;20192;-61
2022/06/14 15:06:34;;;;;;;1999.90;999.90;;;24.10;1.00;;;;;;5013479;28;20276;-59
2022/06/14 15:09:06;;;;;;;1999.90;999.90;;;24.00;1.00;;;;;;5013637;28;20208;-60
2022/06/14 15:11:40;;;;;;;1999.90;999.90;;;24.00;1.00;;;;;;5013501;28;20535;-60
2022/06/14 15:14:18;;;;;;;1999.90;999.90;;;23.90;1.00;;;;;;5013439;28;20215;-59
2022/06/14 15:19:53;;;;;;;1999.90;999.90;;;23.80;1.00;;;;;;5013196;28;20193;-60
2022/06/14 15:19:56;;;;;;;1999.90;999.90;;;23.90;1.00;;;;;;5012766;28;20204;-59
2022/06/14 15:22:29;;;;;;;1999.90;999.90;;;23.70;1.00;;;;;;5013113;28;20281;-59